sensor_id;sensor_type;location;lat;lon;timestamp;P1;durP1;ratioP1;P2;durP2;ratioP2
40022;SDS011;25713;-35.352;149.036;2023-03-25T00:02:03;3.47;;;1.60;;
40022;SDS011;25713;-35.352;149.036;2023-03-25T00:04:32;2.50;;;1.48;;
40022;SDS011;25713;-35.352;149.036;2023-03-25T00:07:02;2.60;;;1.70;;
40022;SDS011;25713;-35.352;149.036;2023-03-25T00:09:32;1.98;;;1.40;;
40022;SDS011;25713;-35.352;149.036;2023-03-25T00:12:01;2.22;;;1.50;;
40022;SDS011;25713;-35.352;149.036;2023-03-25T00:14:31;2.35;;;1.55;;
40022;SDS011;25713;-35.352;149.036;2023-03-25T00:17:02;2.42;;;1.65;;
40022;SDS011;25713;-35.352;149.036;2023-03-25T00:19:32;2.50;;;1.80;;
40022;SDS011;25713;-35.352;149.036;2023-03-25T00:22:01;1.98;;;1.50;;
40022;SDS011;25713;-35.352;149.036;2023-03-25T00:24:31;2.38;;;1.63;;
40022;SDS011;25713;-35.352;149.036;2023-03-25T00:27:00;1.63;;;1.50;;
40022;SDS011;25713;-35.352;149.036;2023-03-25T00:29:30;4.82;;;1.60;;
40022;SDS011;25713;-35.352;149.036;2023-03-25T00:31:59;3.03;;;1.70;;
40022;SDS011;25713;-35.352;149.036;2023-03-25T00:34:31;2.70;;;1.53;;
40022;SDS011;25713;-35.352;149.036;2023-03-25T00:37:00;2.35;;;1.67;;
40022;SDS011;25713;-35.352;149.036;2023-03-25T00:39:30;2.38;;;1.50;;
40022;SDS011;25713;-35.352;149.036;2023-03-25T00:41:59;1.88;;;1.50;;
40022;SDS011;25713;-35.352;149.036;2023-03-25T00:44:29;2.55;;;1.50;;
40022;SDS011;25713;-35.352;149.036;2023-03-25T00:46:58;2.03;;;1.40;;
40022;SDS011;25713;-35.352;149.036;2023-03-25T00:49:29;2.55;;;1.45;;
40022;SDS011;25713;-35.352;149.036;2023-03-25T00:51:59;2.80;;;1.50;;
40022;SDS011;25713;-35.352;149.036;2023-03-25T00:54:28;4.13;;;1.30;;
40022;SDS011;25713;-35.352;149.036;2023-03-25T00:56:58;3.45;;;1.70;;
40022;SDS011;25713;-35.352;149.036;2023-03-25T00:59:27;2.97;;;1.58;;
40022;SDS011;25713;-35.352;149.036;2023-03-25T01:04:30;2.55;;;1.60;;
40022;SDS011;25713;-35.352;149.036;2023-03-25T01:07:00;2.20;;;1.40;;
40022;SDS011;25713;-35.352;149.036;2023-03-25T01:09:29;3.30;;;1.58;;
40022;SDS011;25713;-35.352;149.036;2023-03-25T01:11:59;1.95;;;1.30;;
40022;SDS011;25713;-35.352;149.036;2023-03-25T01:14:28;2.30;;;1.30;;
40022;SDS011;25713;-35.352;149.036;2023-03-25T01:16:58;3.47;;;1.40;;
40022;SDS011;25713;-35.352;149.036;2023-03-25T01:19:32;2.00;;;1.20;;
40022;SDS011;25713;-35.352;149.036;2023-03-25T01:22:02;2.45;;;1.30;;
40022;SDS011;25713;-35.352;149.036;2023-03-25T01:24:31;1.48;;;1.20;;
40022;SDS011;25713;-35.352;149.036;2023-03-25T01:27:00;2.70;;;1.52;;
40022;SDS011;25713;-35.352;149.036;2023-03-25T01:29:30;1.95;;;1.38;;
40022;SDS011;25713;-35.352;149.036;2023-03-25T01:32:00;2.97;;;1.40;;
40022;SDS011;25713;-35.352;149.036;2023-03-25T01:34:32;3.22;;;1.40;;
40022;SDS011;25713;-35.352;149.036;2023-03-25T01:37:02;2.58;;;1.70;;
40022;SDS011;25713;-35.352;149.036;2023-03-25T01:39:31;3.58;;;1.20;;
40022;SDS011;25713;-35.352;149.036;2023-03-25T01:42:00;2.88;;;1.20;;
40022;SDS011;25713;-35.352;149.036;2023-03-25T01:47:34;1.60;;;1.20;;
40022;SDS011;25713;-35.352;149.036;2023-03-25T01:50:06;1.98;;;1.38;;
40022;SDS011;25713;-35.352;149.036;2023-03-25T01:52:36;2.55;;;1.38;;
40022;SDS011;25713;-35.352;149.036;2023-03-25T01:55:06;2.72;;;1.20;;
40022;SDS011;25713;-35.352;149.036;2023-03-25T01:57:35;2.28;;;1.35;;
40022;SDS011;25713;-35.352;149.036;2023-03-25T02:00:09;3.80;;;1.80;;
40022;SDS011;25713;-35.352;149.036;2023-03-25T02:02:40;1.52;;;1.33;;
40022;SDS011;25713;-35.352;149.036;2023-03-25T02:05:14;2.03;;;1.27;;
40022;SDS011;25713;-35.352;149.036;2023-03-25T02:07:48;2.90;;;1.38;;
40022;SDS011;25713;-35.352;149.036;2023-03-25T02:10:18;4.40;;;1.15;;
40022;SDS011;25713;-35.352;149.036;2023-03-25T02:12:48;2.58;;;1.20;;
40022;SDS011;25713;-35.352;149.036;2023-03-25T02:15:17;1.98;;;1.35;;
40022;SDS011;25713;-35.352;149.036;2023-03-25T02:18:07;3.05;;;1.58;;
40022;SDS011;25713;-35.352;149.036;2023-03-25T02:24:01;3.15;;;1.30;;
40022;SDS011;25713;-35.352;149.036;2023-03-25T02:27:11;1.70;;;1.38;;
40022;SDS011;25713;-35.352;149.036;2023-03-25T02:29:49;1.77;;;1.23;;
40022;SDS011;25713;-35.352;149.036;2023-03-25T02:32:48;1.58;;;1.17;;
40022;SDS011;25713;-35.352;149.036;2023-03-25T02:35:49;2.00;;;1.37;;
40022;SDS011;25713;-35.352;149.036;2023-03-25T02:38:42;2.65;;;1.40;;
40022;SDS011;25713;-35.352;149.036;2023-03-25T02:41:16;3.13;;;1.40;;
40022;SDS011;25713;-35.352;149.036;2023-03-25T02:43:56;1.88;;;1.30;;
40022;SDS011;25713;-35.352;149.036;2023-03-25T02:46:28;3.15;;;1.30;;
40022;SDS011;25713;-35.352;149.036;2023-03-25T02:48:59;1.20;;;1.10;;
40022;SDS011;25713;-35.352;149.036;2023-03-25T02:51:32;1.83;;;1.35;;
40022;SDS011;25713;-35.352;149.036;2023-03-25T02:54:07;1.85;;;1.40;;
40022;SDS011;25713;-35.352;149.036;2023-03-25T02:56:38;1.88;;;1.30;;
40022;SDS011;25713;-35.352;149.036;2023-03-25T02:59:10;2.20;;;1.52;;
40022;SDS011;25713;-35.352;149.036;2023-03-25T03:01:40;2.63;;;1.20;;
40022;SDS011;25713;-35.352;149.036;2023-03-25T03:04:09;1.50;;;1.38;;
40022;SDS011;25713;-35.352;149.036;2023-03-25T03:06:40;3.40;;;1.30;;
40022;SDS011;25713;-35.352;149.036;2023-03-25T03:09:21;2.72;;;1.33;;
40022;SDS011;25713;-35.352;149.036;2023-03-25T03:12:05;2.40;;;1.30;;
40022;SDS011;25713;-35.352;149.036;2023-03-25T03:15:01;2.47;;;1.30;;
40022;SDS011;25713;-35.352;149.036;2023-03-25T03:17:41;2.42;;;1.60;;
40022;SDS011;25713;-35.352;149.036;2023-03-25T03:20:16;3.75;;;1.50;;
40022;SDS011;25713;-35.352;149.036;2023-03-25T03:22:52;3.85;;;1.40;;
40022;SDS011;25713;-35.352;149.036;2023-03-25T03:25:30;3.13;;;1.67;;
40022;SDS011;25713;-35.352;149.036;2023-03-25T03:28:03;1.58;;;1.10;;
40022;SDS011;25713;-35.352;149.036;2023-03-25T03:30:37;3.58;;;1.60;;
40022;SDS011;25713;-35.352;149.036;2023-03-25T03:33:13;3.15;;;1.33;;
40022;SDS011;25713;-35.352;149.036;2023-03-25T03:35:46;3.05;;;1.50;;
40022;SDS011;25713;-35.352;149.036;2023-03-25T03:38:19;3.85;;;1.63;;
40022;SDS011;25713;-35.352;149.036;2023-03-25T03:40:54;2.95;;;1.50;;
40022;SDS011;25713;-35.352;149.036;2023-03-25T03:43:27;3.28;;;1.67;;
40022;SDS011;25713;-35.352;149.036;2023-03-25T03:46:01;4.25;;;1.55;;
40022;SDS011;25713;-35.352;149.036;2023-03-25T03:48:35;3.10;;;1.48;;
40022;SDS011;25713;-35.352;149.036;2023-03-25T03:51:07;4.53;;;1.85;;
40022;SDS011;25713;-35.352;149.036;2023-03-25T03:53:41;2.67;;;1.48;;
40022;SDS011;25713;-35.352;149.036;2023-03-25T03:56:16;2.47;;;1.52;;
40022;SDS011;25713;-35.352;149.036;2023-03-25T03:58:49;2.72;;;1.50;;
40022;SDS011;25713;-35.352;149.036;2023-03-25T04:01:24;4.93;;;1.85;;
40022;SDS011;25713;-35.352;149.036;2023-03-25T04:03:59;3.38;;;1.58;;
40022;SDS011;25713;-35.352;149.036;2023-03-25T04:06:32;2.70;;;1.48;;
40022;SDS011;25713;-35.352;149.036;2023-03-25T04:09:06;4.35;;;1.58;;
40022;SDS011;25713;-35.352;149.036;2023-03-25T04:11:42;2.53;;;1.50;;
40022;SDS011;25713;-35.352;149.036;2023-03-25T04:14:16;3.38;;;1.65;;
40022;SDS011;25713;-35.352;149.036;2023-03-25T04:16:46;4.53;;;1.70;;
40022;SDS011;25713;-35.352;149.036;2023-03-25T04:19:16;2.47;;;1.50;;
40022;SDS011;25713;-35.352;149.036;2023-03-25T04:21:48;2.30;;;1.40;;
40022;SDS011;25713;-35.352;149.036;2023-03-25T04:24:25;4.47;;;1.63;;
40022;SDS011;25713;-35.352;149.036;2023-03-25T04:26:57;3.28;;;1.35;;
40022;SDS011;25713;-35.352;149.036;2023-03-25T04:31:55;4.20;;;1.50;;
40022;SDS011;25713;-35.352;149.036;2023-03-25T04:34:26;3.13;;;1.30;;
40022;SDS011;25713;-35.352;149.036;2023-03-25T04:36:55;1.95;;;1.40;;
40022;SDS011;25713;-35.352;149.036;2023-03-25T04:39:25;4.93;;;1.50;;
40022;SDS011;25713;-35.352;149.036;2023-03-25T04:41:57;3.42;;;1.45;;
40022;SDS011;25713;-35.352;149.036;2023-03-25T04:46:55;2.60;;;1.40;;
40022;SDS011;25713;-35.352;149.036;2023-03-25T04:49:26;2.72;;;1.50;;
40022;SDS011;25713;-35.352;149.036;2023-03-25T04:51:55;2.80;;;1.50;;
40022;SDS011;25713;-35.352;149.036;2023-03-25T04:54:26;2.70;;;1.58;;
40022;SDS011;25713;-35.352;149.036;2023-03-25T04:56:58;2.00;;;1.10;;
40022;SDS011;25713;-35.352;149.036;2023-03-25T04:59:27;2.33;;;1.38;;
40022;SDS011;25713;-35.352;149.036;2023-03-25T05:01:57;2.50;;;1.48;;
40022;SDS011;25713;-35.352;149.036;2023-03-25T05:04:27;1.83;;;1.50;;
40022;SDS011;25713;-35.352;149.036;2023-03-25T05:06:57;4.38;;;1.33;;
40022;SDS011;25713;-35.352;149.036;2023-03-25T05:09:26;2.05;;;1.40;;
40022;SDS011;25713;-35.352;149.036;2023-03-25T05:11:58;3.92;;;1.50;;
40022;SDS011;25713;-35.352;149.036;2023-03-25T05:14:28;2.78;;;1.35;;
40022;SDS011;25713;-35.352;149.036;2023-03-25T05:16:58;2.50;;;1.45;;
40022;SDS011;25713;-35.352;149.036;2023-03-25T05:19:28;2.78;;;1.42;;
40022;SDS011;25713;-35.352;149.036;2023-03-25T05:21:58;3.78;;;1.50;;
40022;SDS011;25713;-35.352;149.036;2023-03-25T05:24:27;2.95;;;1.38;;
40022;SDS011;25713;-35.352;149.036;2023-03-25T05:26:59;3.47;;;1.40;;
40022;SDS011;25713;-35.352;149.036;2023-03-25T05:29:29;3.35;;;1.20;;
40022;SDS011;25713;-35.352;149.036;2023-03-25T05:31:58;3.50;;;1.33;;
40022;SDS011;25713;-35.352;149.036;2023-03-25T05:34:28;2.53;;;1.20;;
40022;SDS011;25713;-35.352;149.036;2023-03-25T05:36:58;1.48;;;1.20;;
40022;SDS011;25713;-35.352;149.036;2023-03-25T05:39:28;1.42;;;1.20;;
40022;SDS011;25713;-35.352;149.036;2023-03-25T05:41:59;2.38;;;1.08;;
40022;SDS011;25713;-35.352;149.036;2023-03-25T05:44:29;1.60;;;1.00;;
40022;SDS011;25713;-35.352;149.036;2023-03-25T05:46:58;2.95;;;1.38;;
40022;SDS011;25713;-35.352;149.036;2023-03-25T05:49:28;1.75;;;1.00;;
40022;SDS011;25713;-35.352;149.036;2023-03-25T05:51:57;2.13;;;0.98;;
40022;SDS011;25713;-35.352;149.036;2023-03-25T05:54:27;1.42;;;1.10;;
40022;SDS011;25713;-35.352;149.036;2023-03-25T05:56:57;1.23;;;0.95;;
40022;SDS011;25713;-35.352;149.036;2023-03-25T05:59:28;5.57;;;1.13;;
40022;SDS011;25713;-35.352;149.036;2023-03-25T06:01:58;1.58;;;0.90;;
40022;SDS011;25713;-35.352;149.036;2023-03-25T06:04:27;1.13;;;0.93;;
40022;SDS011;25713;-35.352;149.036;2023-03-25T06:06:56;3.30;;;1.05;;
40022;SDS011;25713;-35.352;149.036;2023-03-25T06:09:26;2.05;;;1.30;;
40022;SDS011;25713;-35.352;149.036;2023-03-25T06:11:55;5.15;;;1.08;;
40022;SDS011;25713;-35.352;149.036;2023-03-25T06:14:27;1.83;;;1.17;;
40022;SDS011;25713;-35.352;149.036;2023-03-25T06:16:57;1.95;;;1.00;;
40022;SDS011;25713;-35.352;149.036;2023-03-25T06:19:26;1.40;;;1.10;;
40022;SDS011;25713;-35.352;149.036;2023-03-25T06:21:56;1.65;;;1.00;;
40022;SDS011;25713;-35.352;149.036;2023-03-25T06:24:25;1.67;;;1.05;;
40022;SDS011;25713;-35.352;149.036;2023-03-25T06:26:55;1.55;;;1.20;;
40022;SDS011;25713;-35.352;149.036;2023-03-25T06:29:27;2.30;;;1.35;;
40022;SDS011;25713;-35.352;149.036;2023-03-25T06:31:56;2.83;;;0.93;;
40022;SDS011;25713;-35.352;149.036;2023-03-25T06:34:25;1.38;;;0.90;;
40022;SDS011;25713;-35.352;149.036;2023-03-25T06:36:55;1.08;;;0.90;;
40022;SDS011;25713;-35.352;149.036;2023-03-25T06:39:24;2.67;;;1.13;;
40022;SDS011;25713;-35.352;149.036;2023-03-25T06:41:56;1.67;;;1.10;;
40022;SDS011;25713;-35.352;149.036;2023-03-25T06:44:36;1.73;;;1.10;;
40022;SDS011;25713;-35.352;149.036;2023-03-25T06:47:23;1.80;;;1.15;;
40022;SDS011;25713;-35.352;149.036;2023-03-25T06:49:53;1.83;;;1.20;;
40022;SDS011;25713;-35.352;149.036;2023-03-25T06:52:22;1.05;;;0.90;;
40022;SDS011;25713;-35.352;149.036;2023-03-25T06:54:52;1.35;;;0.98;;
40022;SDS011;25713;-35.352;149.036;2023-03-25T06:57:21;1.40;;;0.80;;
40022;SDS011;25713;-35.352;149.036;2023-03-25T06:59:53;1.83;;;1.20;;
40022;SDS011;25713;-35.352;149.036;2023-03-25T07:02:22;2.07;;;1.17;;
40022;SDS011;25713;-35.352;149.036;2023-03-25T07:04:51;1.60;;;1.05;;
40022;SDS011;25713;-35.352;149.036;2023-03-25T07:07:21;1.80;;;1.17;;
40022;SDS011;25713;-35.352;149.036;2023-03-25T07:09:52;2.55;;;1.25;;
40022;SDS011;25713;-35.352;149.036;2023-03-25T07:12:21;2.53;;;1.20;;
40022;SDS011;25713;-35.352;149.036;2023-03-25T07:14:54;1.70;;;1.30;;
40022;SDS011;25713;-35.352;149.036;2023-03-25T07:19:52;3.35;;;1.20;;
40022;SDS011;25713;-35.352;149.036;2023-03-25T07:22:21;1.83;;;1.23;;
40022;SDS011;25713;-35.352;149.036;2023-03-25T07:24:51;2.17;;;1.20;;
40022;SDS011;25713;-35.352;149.036;2023-03-25T07:27:21;1.63;;;1.10;;
40022;SDS011;25713;-35.352;149.036;2023-03-25T07:30:01;1.95;;;1.10;;
40022;SDS011;25713;-35.352;149.036;2023-03-25T07:32:31;4.15;;;1.20;;
40022;SDS011;25713;-35.352;149.036;2023-03-25T07:35:01;1.65;;;1.08;;
40022;SDS011;25713;-35.352;149.036;2023-03-25T07:37:30;1.55;;;1.00;;
40022;SDS011;25713;-35.352;149.036;2023-03-25T07:40:00;1.27;;;1.10;;
40022;SDS011;25713;-35.352;149.036;2023-03-25T07:42:29;2.25;;;1.20;;
40022;SDS011;25713;-35.352;149.036;2023-03-25T07:45:16;1.83;;;0.95;;
40022;SDS011;25713;-35.352;149.036;2023-03-25T07:47:46;2.15;;;1.13;;
40022;SDS011;25713;-35.352;149.036;2023-03-25T07:50:16;3.13;;;1.00;;
40022;SDS011;25713;-35.352;149.036;2023-03-25T07:52:46;0.98;;;0.88;;
40022;SDS011;25713;-35.352;149.036;2023-03-25T07:55:15;2.15;;;1.08;;
40022;SDS011;25713;-35.352;149.036;2023-03-25T07:57:45;4.88;;;1.10;;
40022;SDS011;25713;-35.352;149.036;2023-03-25T08:00:16;1.45;;;0.98;;
40022;SDS011;25713;-35.352;149.036;2023-03-25T08:02:46;3.08;;;1.20;;
40022;SDS011;25713;-35.352;149.036;2023-03-25T08:05:16;2.55;;;0.90;;
40022;SDS011;25713;-35.352;149.036;2023-03-25T08:07:45;1.70;;;1.00;;
40022;SDS011;25713;-35.352;149.036;2023-03-25T08:10:15;1.73;;;0.90;;
40022;SDS011;25713;-35.352;149.036;2023-03-25T08:12:45;1.77;;;0.90;;
40022;SDS011;25713;-35.352;149.036;2023-03-25T08:15:14;1.60;;;0.80;;
40022;SDS011;25713;-35.352;149.036;2023-03-25T08:17:45;2.10;;;1.00;;
40022;SDS011;25713;-35.352;149.036;2023-03-25T08:20:15;2.17;;;1.20;;
40022;SDS011;25713;-35.352;149.036;2023-03-25T08:22:45;1.92;;;1.15;;
40022;SDS011;25713;-35.352;149.036;2023-03-25T08:25:14;2.67;;;1.10;;
40022;SDS011;25713;-35.352;149.036;2023-03-25T08:27:44;1.08;;;0.95;;
40022;SDS011;25713;-35.352;149.036;2023-03-25T08:30:13;2.88;;;1.00;;
40022;SDS011;25713;-35.352;149.036;2023-03-25T08:32:45;2.83;;;1.10;;
40022;SDS011;25713;-35.352;149.036;2023-03-25T08:35:14;1.60;;;0.90;;
40022;SDS011;25713;-35.352;149.036;2023-03-25T08:37:44;2.88;;;1.23;;
40022;SDS011;25713;-35.352;149.036;2023-03-25T08:40:13;1.73;;;1.08;;
40022;SDS011;25713;-35.352;149.036;2023-03-25T08:42:43;2.35;;;0.88;;
40022;SDS011;25713;-35.352;149.036;2023-03-25T08:45:12;1.23;;;0.90;;
40022;SDS011;25713;-35.352;149.036;2023-03-25T08:47:42;2.15;;;1.10;;
40022;SDS011;25713;-35.352;149.036;2023-03-25T08:50:13;2.20;;;1.07;;
40022;SDS011;25713;-35.352;149.036;2023-03-25T08:52:43;2.20;;;1.10;;
40022;SDS011;25713;-35.352;149.036;2023-03-25T08:55:12;1.00;;;0.93;;
40022;SDS011;25713;-35.352;149.036;2023-03-25T08:57:42;3.08;;;0.85;;
40022;SDS011;25713;-35.352;149.036;2023-03-25T09:00:11;1.25;;;0.90;;
40022;SDS011;25713;-35.352;149.036;2023-03-25T09:02:41;3.88;;;1.15;;
40022;SDS011;25713;-35.352;149.036;2023-03-25T09:05:13;3.95;;;0.90;;
40022;SDS011;25713;-35.352;149.036;2023-03-25T09:07:43;2.75;;;1.00;;
40022;SDS011;25713;-35.352;149.036;2023-03-25T09:10:13;2.05;;;1.02;;
40022;SDS011;25713;-35.352;149.036;2023-03-25T09:12:42;1.55;;;1.00;;
40022;SDS011;25713;-35.352;149.036;2023-03-25T09:15:12;2.22;;;1.00;;
40022;SDS011;25713;-35.352;149.036;2023-03-25T09:17:42;2.13;;;1.17;;
40022;SDS011;25713;-35.352;149.036;2023-03-25T09:20:13;2.15;;;1.00;;
40022;SDS011;25713;-35.352;149.036;2023-03-25T09:22:43;1.30;;;0.80;;
40022;SDS011;25713;-35.352;149.036;2023-03-25T09:25:12;2.10;;;0.80;;
40022;SDS011;25713;-35.352;149.036;2023-03-25T09:27:42;1.92;;;0.73;;
40022;SDS011;25713;-35.352;149.036;2023-03-25T09:30:12;1.85;;;0.98;;
40022;SDS011;25713;-35.352;149.036;2023-03-25T09:32:41;1.52;;;0.70;;
40022;SDS011;25713;-35.352;149.036;2023-03-25T09:35:13;1.60;;;0.90;;
40022;SDS011;25713;-35.352;149.036;2023-03-25T09:37:42;1.43;;;0.80;;
40022;SDS011;25713;-35.352;149.036;2023-03-25T09:40:12;2.42;;;0.90;;
40022;SDS011;25713;-35.352;149.036;2023-03-25T09:45:29;2.33;;;0.90;;
40022;SDS011;25713;-35.352;149.036;2023-03-25T09:48:02;4.47;;;1.00;;
40022;SDS011;25713;-35.352;149.036;2023-03-25T09:50:42;1.88;;;0.90;;
40022;SDS011;25713;-35.352;149.036;2023-03-25T09:53:14;1.25;;;0.80;;
40022;SDS011;25713;-35.352;149.036;2023-03-25T09:55:52;2.42;;;0.80;;
40022;SDS011;25713;-35.352;149.036;2023-03-25T09:58:25;2.65;;;0.80;;
40022;SDS011;25713;-35.352;149.036;2023-03-25T10:01:04;2.40;;;0.98;;
40022;SDS011;25713;-35.352;149.036;2023-03-25T10:04:00;1.00;;;0.80;;
40022;SDS011;25713;-35.352;149.036;2023-03-25T10:06:55;1.27;;;0.80;;
40022;SDS011;25713;-35.352;149.036;2023-03-25T10:09:38;2.30;;;1.10;;
40022;SDS011;25713;-35.352;149.036;2023-03-25T10:12:20;1.67;;;0.93;;
40022;SDS011;25713;-35.352;149.036;2023-03-25T10:15:00;1.73;;;1.02;;
40022;SDS011;25713;-35.352;149.036;2023-03-25T10:17:38;1.00;;;0.65;;
40022;SDS011;25713;-35.352;149.036;2023-03-25T10:20:19;2.85;;;0.95;;
40022;SDS011;25713;-35.352;149.036;2023-03-25T10:22:59;2.50;;;0.93;;
40022;SDS011;25713;-35.352;149.036;2023-03-25T10:25:34;1.23;;;0.70;;
40022;SDS011;25713;-35.352;149.036;2023-03-25T10:28:05;1.50;;;1.00;;
40022;SDS011;25713;-35.352;149.036;2023-03-25T10:30:41;5.43;;;1.10;;
40022;SDS011;25713;-35.352;149.036;2023-03-25T10:33:15;2.00;;;0.90;;
40022;SDS011;25713;-35.352;149.036;2023-03-25T10:35:51;3.17;;;0.93;;
40022;SDS011;25713;-35.352;149.036;2023-03-25T10:38:25;2.97;;;0.85;;
40022;SDS011;25713;-35.352;149.036;2023-03-25T10:40:57;4.10;;;1.00;;
40022;SDS011;25713;-35.352;149.036;2023-03-25T10:43:38;1.30;;;0.90;;
40022;SDS011;25713;-35.352;149.036;2023-03-25T10:46:11;4.57;;;1.20;;
40022;SDS011;25713;-35.352;149.036;2023-03-25T10:48:46;2.78;;;1.10;;
40022;SDS011;25713;-35.352;149.036;2023-03-25T10:51:16;2.35;;;0.88;;
40022;SDS011;25713;-35.352;149.036;2023-03-25T10:53:49;1.50;;;1.07;;
40022;SDS011;25713;-35.352;149.036;2023-03-25T10:56:20;1.58;;;0.90;;
40022;SDS011;25713;-35.352;149.036;2023-03-25T10:58:53;4.00;;;1.00;;
40022;SDS011;25713;-35.352;149.036;2023-03-25T11:01:27;2.25;;;1.17;;
40022;SDS011;25713;-35.352;149.036;2023-03-25T11:04:01;5.07;;;1.75;;
40022;SDS011;25713;-35.352;149.036;2023-03-25T11:06:33;3.20;;;1.73;;
40022;SDS011;25713;-35.352;149.036;2023-03-25T11:09:21;1.95;;;1.75;;
40022;SDS011;25713;-35.352;149.036;2023-03-25T11:11:51;2.50;;;1.80;;
40022;SDS011;25713;-35.352;149.036;2023-03-25T11:14:22;2.88;;;1.55;;
40022;SDS011;25713;-35.352;149.036;2023-03-25T11:16:53;2.08;;;1.70;;
40022;SDS011;25713;-35.352;149.036;2023-03-25T11:19:25;3.80;;;1.45;;
40022;SDS011;25713;-35.352;149.036;2023-03-25T11:21:57;4.38;;;1.60;;
40022;SDS011;25713;-35.352;149.036;2023-03-25T11:24:33;2.92;;;1.42;;
40022;SDS011;25713;-35.352;149.036;2023-03-25T11:27:07;2.42;;;1.40;;
40022;SDS011;25713;-35.352;149.036;2023-03-25T11:29:47;2.13;;;1.42;;
40022;SDS011;25713;-35.352;149.036;2023-03-25T11:32:22;2.08;;;1.20;;
40022;SDS011;25713;-35.352;149.036;2023-03-25T11:34:58;4.00;;;1.30;;
40022;SDS011;25713;-35.352;149.036;2023-03-25T11:37:35;1.90;;;1.00;;
40022;SDS011;25713;-35.352;149.036;2023-03-25T11:40:14;1.63;;;1.00;;
40022;SDS011;25713;-35.352;149.036;2023-03-25T11:42:45;1.70;;;1.15;;
40022;SDS011;25713;-35.352;149.036;2023-03-25T11:45:19;2.92;;;1.00;;
40022;SDS011;25713;-35.352;149.036;2023-03-25T11:47:51;2.22;;;1.00;;
40022;SDS011;25713;-35.352;149.036;2023-03-25T11:50:25;2.90;;;1.00;;
40022;SDS011;25713;-35.352;149.036;2023-03-25T11:52:56;2.15;;;1.02;;
40022;SDS011;25713;-35.352;149.036;2023-03-25T11:55:30;1.88;;;0.95;;
40022;SDS011;25713;-35.352;149.036;2023-03-25T11:58:04;3.53;;;1.05;;
40022;SDS011;25713;-35.352;149.036;2023-03-25T12:00:40;3.28;;;1.00;;
40022;SDS011;25713;-35.352;149.036;2023-03-25T12:03:15;2.55;;;1.00;;
40022;SDS011;25713;-35.352;149.036;2023-03-25T12:05:57;1.27;;;0.90;;
40022;SDS011;25713;-35.352;149.036;2023-03-25T12:08:39;2.60;;;0.90;;
40022;SDS011;25713;-35.352;149.036;2023-03-25T12:11:13;2.17;;;0.90;;
40022;SDS011;25713;-35.352;149.036;2023-03-25T12:13:49;3.20;;;0.90;;
40022;SDS011;25713;-35.352;149.036;2023-03-25T12:16:36;1.50;;;1.00;;
40022;SDS011;25713;-35.352;149.036;2023-03-25T12:19:12;5.55;;;1.20;;
40022;SDS011;25713;-35.352;149.036;2023-03-25T12:21:53;2.08;;;0.65;;
40022;SDS011;25713;-35.352;149.036;2023-03-25T12:24:48;2.80;;;0.70;;
40022;SDS011;25713;-35.352;149.036;2023-03-25T12:27:33;2.63;;;1.20;;
40022;SDS011;25713;-35.352;149.036;2023-03-25T12:30:18;1.48;;;0.90;;
40022;SDS011;25713;-35.352;149.036;2023-03-25T12:33:01;2.35;;;0.90;;
40022;SDS011;25713;-35.352;149.036;2023-03-25T12:35:42;1.65;;;0.88;;
40022;SDS011;25713;-35.352;149.036;2023-03-25T12:38:25;3.90;;;0.88;;
40022;SDS011;25713;-35.352;149.036;2023-03-25T12:41:11;2.30;;;0.98;;
40022;SDS011;25713;-35.352;149.036;2023-03-25T12:49:47;1.77;;;0.80;;
40022;SDS011;25713;-35.352;149.036;2023-03-25T12:52:32;1.50;;;0.70;;
40022;SDS011;25713;-35.352;149.036;2023-03-25T12:55:24;1.83;;;0.82;;
40022;SDS011;25713;-35.352;149.036;2023-03-25T12:58:11;2.22;;;0.88;;
40022;SDS011;25713;-35.352;149.036;2023-03-25T13:00:57;2.85;;;0.75;;
40022;SDS011;25713;-35.352;149.036;2023-03-25T13:03:49;1.98;;;0.80;;
40022;SDS011;25713;-35.352;149.036;2023-03-25T13:06:29;2.13;;;1.00;;
40022;SDS011;25713;-35.352;149.036;2023-03-25T13:09:08;1.92;;;0.90;;
40022;SDS011;25713;-35.352;149.036;2023-03-25T13:11:42;1.10;;;0.88;;
40022;SDS011;25713;-35.352;149.036;2023-03-25T13:14:16;2.95;;;0.75;;
40022;SDS011;25713;-35.352;149.036;2023-03-25T13:16:54;2.08;;;1.05;;
40022;SDS011;25713;-35.352;149.036;2023-03-25T13:19:27;4.68;;;0.88;;
40022;SDS011;25713;-35.352;149.036;2023-03-25T13:21:59;0.80;;;0.80;;
40022;SDS011;25713;-35.352;149.036;2023-03-25T13:24:44;1.10;;;0.80;;
40022;SDS011;25713;-35.352;149.036;2023-03-25T13:27:17;3.42;;;1.10;;
40022;SDS011;25713;-35.352;149.036;2023-03-25T13:29:48;4.30;;;1.20;;
40022;SDS011;25713;-35.352;149.036;2023-03-25T13:32:24;2.13;;;1.00;;
40022;SDS011;25713;-35.352;149.036;2023-03-25T13:34:59;2.88;;;0.90;;
40022;SDS011;25713;-35.352;149.036;2023-03-25T13:37:33;3.38;;;0.80;;
40022;SDS011;25713;-35.352;149.036;2023-03-25T13:40:10;1.17;;;1.00;;
40022;SDS011;25713;-35.352;149.036;2023-03-25T13:42:50;4.75;;;1.13;;
40022;SDS011;25713;-35.352;149.036;2023-03-25T13:45:26;1.45;;;1.00;;
40022;SDS011;25713;-35.352;149.036;2023-03-25T13:48:03;1.40;;;1.13;;
40022;SDS011;25713;-35.352;149.036;2023-03-25T13:50:36;3.35;;;1.08;;
40022;SDS011;25713;-35.352;149.036;2023-03-25T13:53:06;1.50;;;0.95;;
40022;SDS011;25713;-35.352;149.036;2023-03-25T13:55:42;1.58;;;1.10;;
40022;SDS011;25713;-35.352;149.036;2023-03-25T13:58:25;1.88;;;1.25;;
40022;SDS011;25713;-35.352;149.036;2023-03-25T14:01:23;3.08;;;1.00;;
40022;SDS011;25713;-35.352;149.036;2023-03-25T14:04:20;3.53;;;1.30;;
40022;SDS011;25713;-35.352;149.036;2023-03-25T14:07:23;4.07;;;1.40;;
40022;SDS011;25713;-35.352;149.036;2023-03-25T14:13:08;2.38;;;1.27;;
40022;SDS011;25713;-35.352;149.036;2023-03-25T14:15:50;4.38;;;1.52;;
40022;SDS011;25713;-35.352;149.036;2023-03-25T14:18:24;2.28;;;1.50;;
40022;SDS011;25713;-35.352;149.036;2023-03-25T14:20:56;1.33;;;1.23;;
40022;SDS011;25713;-35.352;149.036;2023-03-25T14:23:38;3.20;;;1.40;;
40022;SDS011;25713;-35.352;149.036;2023-03-25T14:26:07;2.55;;;1.40;;
40022;SDS011;25713;-35.352;149.036;2023-03-25T14:28:38;2.53;;;1.58;;
40022;SDS011;25713;-35.352;149.036;2023-03-25T14:31:15;2.28;;;1.45;;
40022;SDS011;25713;-35.352;149.036;2023-03-25T14:37:24;3.83;;;1.40;;
40022;SDS011;25713;-35.352;149.036;2023-03-25T14:39:55;3.15;;;1.50;;
40022;SDS011;25713;-35.352;149.036;2023-03-25T14:42:27;4.47;;;1.75;;
40022;SDS011;25713;-35.352;149.036;2023-03-25T14:48:24;3.95;;;1.80;;
40022;SDS011;25713;-35.352;149.036;2023-03-25T15:51:53;3.10;;;1.85;;
40022;SDS011;25713;-35.352;149.036;2023-03-25T15:54:32;2.50;;;1.90;;
40022;SDS011;25713;-35.352;149.036;2023-03-25T15:57:05;3.80;;;2.20;;
40022;SDS011;25713;-35.352;149.036;2023-03-25T15:59:42;2.60;;;2.00;;
40022;SDS011;25713;-35.352;149.036;2023-03-25T16:02:16;3.17;;;1.88;;
40022;SDS011;25713;-35.352;149.036;2023-03-25T16:04:52;4.00;;;1.73;;
40022;SDS011;25713;-35.352;149.036;2023-03-25T16:07:25;2.00;;;1.65;;
40022;SDS011;25713;-35.352;149.036;2023-03-25T16:09:55;2.55;;;1.88;;
40022;SDS011;25713;-35.352;149.036;2023-03-25T16:12:35;1.95;;;1.63;;
40022;SDS011;25713;-35.352;149.036;2023-03-25T16:15:12;1.95;;;1.70;;
40022;SDS011;25713;-35.352;149.036;2023-03-25T16:17:42;2.28;;;1.73;;
40022;SDS011;25713;-35.352;149.036;2023-03-25T16:20:13;2.20;;;1.90;;
40022;SDS011;25713;-35.352;149.036;2023-03-25T16:22:47;2.95;;;1.67;;